Time;durP1;ratioP1;P1;durP2;ratioP2;P2;SDS_P1;SDS_P2;PMS_P1;PMS_P2;Temp;Humidity;BMP_temperature;BMP_pressure;BME280_temperature;BME280_humidity;BME280_pressure;Samples;Min_cycle;Max_cycle;Signal;HPM_P1;HPM_P2
2022/07/06 00:02:07;;;;;;;1.92;0.47;;;;;;;27.85;39.16;100800.97;4953072;29;20059;-82
2022/07/06 00:04:52;;;;;;;3.30;0.68;;;;;;;27.82;39.14;100801.06;4950100;29;20054;-82
2022/07/06 00:07:37;;;;;;;2.72;0.52;;;;;;;27.78;38.80;100798.34;4945035;29;20047;-80
2022/07/06 00:10:22;;;;;;;5.35;0.80;;;;;;;27.77;38.95;100793.97;4944715;28;20062;-81
2022/07/06 00:13:07;;;;;;;3.88;0.50;;;;;;;27.66;39.08;100793.38;4942815;29;20047;-83
2022/07/06 00:15:53;;;;;;;1.33;0.60;;;;;;;27.72;39.36;100793.66;4943620;29;20050;-82
2022/07/06 00:18:38;;;;;;;2.58;0.70;;;;;;;27.70;39.47;100802.47;4943532;29;20532;-83
2022/07/06 00:21:23;;;;;;;6.43;0.88;;;;;;;27.65;39.78;100794.59;4950476;29;20051;-82
2022/07/06 00:24:08;;;;;;;5.57;0.63;;;;;;;27.65;40.38;100803.78;4948233;29;20055;-82
2022/07/06 00:26:53;;;;;;;1.02;0.55;;;;;;;27.58;40.74;100800.34;4944423;29;20058;-82
2022/07/06 00:29:38;;;;;;;2.83;0.73;;;;;;;27.58;40.90;100795.53;4946770;29;20050;-82
2022/07/06 00:32:23;;;;;;;2.78;0.47;;;;;;;27.53;40.87;100800.84;4951783;28;20520;-82
2022/07/06 00:35:08;;;;;;;4.72;0.70;;;;;;;27.50;40.86;100808.06;4945576;29;20055;-82
2022/07/06 00:37:53;;;;;;;4.85;0.60;;;;;;;27.44;41.10;100823.72;4944417;29;20050;-80
2022/07/06 00:40:38;;;;;;;2.13;0.50;;;;;;;27.50;41.03;100821.25;4947751;29;20042;-81
2022/07/06 00:43:23;;;;;;;1.50;0.70;;;;;;;27.38;41.32;100830.25;4944410;29;20128;-81
2022/07/06 00:46:09;;;;;;;3.60;0.50;;;;;;;27.39;41.25;100827.00;4943948;29;20050;-80
2022/07/06 00:48:54;;;;;;;1.38;0.70;;;;;;;27.35;42.36;100836.66;4941562;29;20054;-80
2022/07/06 00:51:39;;;;;;;2.05;0.70;;;;;;;27.31;42.30;100833.16;4950638;28;20051;-82
2022/07/06 00:54:28;;;;;;;1.92;0.60;;;;;;;27.32;42.45;100837.53;4943266;29;20058;-79
2022/07/06 00:57:13;;;;;;;1.55;0.85;;;;;;;27.34;42.55;100835.06;4923274;29;20071;-79
2022/07/06 00:59:58;;;;;;;1.27;0.60;;;;;;;27.32;43.16;100835.53;4939407;29;20059;-81
2022/07/06 01:02:44;;;;;;;3.88;0.70;;;;;;;27.28;43.36;100837.56;4943647;29;20067;-80
2022/07/06 01:05:29;;;;;;;2.05;0.63;;;;;;;27.33;43.37;100831.50;4940865;29;20050;-81
2022/07/06 01:08:15;;;;;;;1.02;0.57;;;;;;;27.34;43.01;100824.69;4942591;29;20049;-81
2022/07/06 01:11:00;;;;;;;0.82;0.60;;;;;;;27.34;43.49;100827.50;4940883;29;20054;-81
2022/07/06 01:13:47;;;;;;;0.98;0.57;;;;;;;27.38;43.76;100827.44;4952798;29;20411;-81
2022/07/06 01:16:32;;;;;;;1.83;0.70;;;;;;;27.39;43.38;100826.19;4941720;29;20058;-80
2022/07/06 01:19:17;;;;;;;1.67;0.60;;;;;;;27.38;43.30;100825.41;4941291;29;20055;-82
2022/07/06 01:22:02;;;;;;;4.32;0.70;;;;;;;27.39;43.17;100820.63;4941455;29;20070;-82
2022/07/06 01:24:47;;;;;;;1.63;0.57;;;;;;;27.38;42.97;100814.25;4941919;29;20523;-82
2022/07/06 01:27:36;;;;;;;2.75;0.60;;;;;;;27.41;43.22;100802.22;4944027;29;20070;-82
2022/07/06 01:30:21;;;;;;;2.13;0.70;;;;;;;27.42;43.19;100801.03;4941384;29;20437;-82
2022/07/06 01:33:06;;;;;;;2.85;0.60;;;;;;;27.24;42.63;100797.75;4946463;29;20050;-82
2022/07/06 01:35:50;;;;;;;2.38;0.50;;;;;;;27.33;42.91;100800.00;4957807;28;20066;-82
2022/07/06 01:38:45;;;;;;;1.60;0.52;;;;;;;27.42;42.57;100794.63;4940328;29;20058;-81
2022/07/06 01:41:30;;;;;;;1.45;0.73;;;;;;;27.36;42.33;100794.34;4941292;29;20055;-83
2022/07/06 01:44:14;;;;;;;1.45;0.70;;;;;;;27.35;43.03;100797.56;4941072;29;20051;-81
2022/07/06 01:46:59;;;;;;;4.07;0.40;;;;;;;27.29;43.16;100804.84;4940632;29;20054;-82
2022/07/06 01:49:44;;;;;;;1.30;0.45;;;;;;;27.31;42.97;100794.84;4951929;28;20538;-81
2022/07/06 01:52:29;;;;;;;1.77;0.77;;;;;;;27.31;42.71;100796.84;4948587;28;20047;-82
2022/07/06 01:55:13;;;;;;;3.88;0.73;;;;;;;27.35;43.17;100814.31;4942356;29;20055;-81
2022/07/06 01:57:58;;;;;;;3.67;0.85;;;;;;;27.17;42.83;100809.84;4939463;29;20050;-81
2022/07/06 02:00:45;;;;;;;2.72;0.75;;;;;;;27.16;43.13;100811.06;4940209;29;20432;-81
2022/07/06 02:03:30;;;;;;;1.25;0.60;;;;;;;27.16;43.58;100810.28;4931796;29;20046;-83
2022/07/06 02:06:15;;;;;;;0.88;0.65;;;;;;;26.71;44.10;100805.03;4946122;29;20058;-82
2022/07/06 02:08:59;;;;;;;1.70;0.90;;;;;;;26.46;44.96;100796.25;4946477;29;20054;-83
2022/07/06 02:11:44;;;;;;;1.45;0.70;;;;;;;26.50;45.54;100808.16;4941661;29;20062;-83
2022/07/06 02:14:29;;;;;;;1.40;0.63;;;;;;;26.64;45.95;100812.72;4939617;29;20047;-84
2022/07/06 02:17:14;;;;;;;3.08;0.60;;;;;;;26.71;45.48;100816.19;4941670;28;20058;-83
2022/07/06 02:19:58;;;;;;;;;;;;;;;26.76;45.39;100818.50;4948307;23;20054;-59
2022/07/06 02:22:44;;;;;;;2.58;0.60;;;;;;;26.76;45.29;100817.72;4928048;29;19923;-59
2022/07/06 02:25:29;;;;;;;1.38;0.60;;;;;;;26.85;45.58;100831.91;4928597;29;20124;-59
2022/07/06 02:28:14;;;;;;;1.50;0.70;;;;;;;26.89;44.82;100831.88;4934463;29;20066;-61
2022/07/06 02:31:00;;;;;;;3.35;0.65;;;;;;;26.70;44.94;100836.13;4921789;29;20051;-61
2022/07/06 02:33:46;;;;;;;3.17;0.50;;;;;;;26.80;45.00;100843.56;4937894;29;20047;-60
2022/07/06 02:36:32;;;;;;;0.95;0.60;;;;;;;26.86;44.71;100836.28;4935538;29;20526;-59
2022/07/06 02:39:18;;;;;;;3.78;0.60;;;;;;;26.91;45.02;100847.00;4938500;29;20664;-59
2022/07/06 02:42:03;;;;;;;3.00;0.70;;;;;;;26.92;44.40;100853.38;4934405;29;20043;-59
2022/07/06 02:44:48;;;;;;;1.27;0.70;;;;;;;26.96;44.17;100857.69;4933977;29;20050;-59
2022/07/06 02:47:34;;;;;;;1.60;0.70;;;;;;;26.97;43.73;100853.66;4933955;29;20055;-59
2022/07/06 02:50:19;;;;;;;2.17;0.85;;;;;;;27.03;43.71;100857.53;4929996;29;20419;-59
2022/07/06 02:53:04;;;;;;;1.55;0.65;;;;;;;26.95;42.68;100853.31;4931439;29;20051;-59
2022/07/06 02:55:50;;;;;;;4.05;0.60;;;;;;;26.90;43.47;100848.22;4933113;29;20050;-58
2022/07/06 02:58:35;;;;;;;3.17;0.80;;;;;;;26.91;43.61;100846.22;4932073;29;20058;-57
2022/07/06 03:01:20;;;;;;;3.65;0.63;;;;;;;26.89;43.73;100843.84;4933127;29;20051;-58
2022/07/06 03:04:05;;;;;;;2.05;0.50;;;;;;;26.82;43.53;100844.69;4915178;29;20249;-58
2022/07/06 03:06:50;;;;;;;1.45;0.43;;;;;;;26.88;43.58;100847.81;4914401;29;20071;-61
2022/07/06 03:09:35;;;;;;;1.42;0.60;;;;;;;26.78;43.24;100843.97;4914563;29;20067;-61
2022/07/06 03:12:20;;;;;;;0.80;0.40;;;;;;;26.80;43.75;100846.34;4935472;29;20055;-60
2022/07/06 03:15:05;;;;;;;1.42;0.60;;;;;;;26.77;43.61;100863.91;4922052;29;20051;-59
2022/07/06 03:17:52;;;;;;;0.95;0.73;;;;;;;26.88;43.52;100864.56;4918356;29;20071;-61
2022/07/06 03:20:38;;;;;;;4.97;0.63;;;;;;;26.89;42.95;100863.38;4951174;29;20558;-60
2022/07/06 03:23:25;;;;;;;2.08;0.60;;;;;;;26.90;43.22;100867.75;4940936;29;20047;-60
2022/07/06 03:26:10;;;;;;;3.08;0.63;;;;;;;26.88;42.79;100867.38;4937470;29;20530;-60
2022/07/06 03:28:55;;;;;;;2.22;0.40;;;;;;;26.87;43.30;100867.81;4937386;29;20643;-60
2022/07/06 03:31:41;;;;;;;4.13;0.70;;;;;;;26.86;42.86;100886.53;4937149;29;20043;-60
2022/07/06 03:34:26;;;;;;;3.20;0.60;;;;;;;26.88;42.71;100872.94;4936954;29;20047;-60
2022/07/06 03:37:11;;;;;;;4.07;0.95;;;;;;;26.86;43.01;100872.56;4937318;29;20047;-60
2022/07/06 03:39:59;;;;;;;2.00;0.57;;;;;;;26.79;43.44;100875.47;4937490;29;20071;-61
2022/07/06 03:42:44;;;;;;;1.45;0.70;;;;;;;26.88;43.42;100874.94;4942487;28;20439;-62
2022/07/06 03:45:30;;;;;;;7.63;0.60;;;;;;;26.89;43.03;100873.75;4934936;29;20071;-60
2022/07/06 03:48:16;;;;;;;1.25;0.50;;;;;;;26.88;42.49;100874.94;4932184;29;20051;-60
2022/07/06 03:51:03;;;;;;;3.72;0.55;;;;;;;26.82;42.70;100866.22;4935575;29;20055;-59
2022/07/06 03:53:48;;;;;;;1.85;0.60;;;;;;;26.78;42.43;100869.09;4934554;29;20086;-59
2022/07/06 03:56:33;;;;;;;1.65;0.50;;;;;;;26.71;41.51;100866.41;4940672;29;20062;-59
2022/07/06 03:59:25;;;;;;;0.75;0.40;;;;;;;26.68;42.83;100855.28;4931974;29;20047;-60
2022/07/06 04:02:10;;;;;;;1.25;0.40;;;;;;;26.67;42.43;100848.13;4930784;29;20055;-61
2022/07/06 04:04:56;;;;;;;0.82;0.45;;;;;;;26.74;42.63;100862.78;4947321;29;20046;-61
2022/07/06 04:07:41;;;;;;;0.85;0.55;;;;;;;26.89;43.03;100855.00;4943161;29;20047;-60
2022/07/06 04:10:26;;;;;;;2.78;0.40;;;;;;;26.99;42.44;100862.41;4940068;28;20163;-61
2022/07/06 04:13:13;;;;;;;1.65;0.50;;;;;;;27.08;42.23;100850.69;4934929;29;20051;-61
2022/07/06 04:15:59;;;;;;;2.22;0.50;;;;;;;27.11;42.49;100849.84;4935566;29;20384;-58
2022/07/06 04:18:44;;;;;;;2.15;0.52;;;;;;;27.13;42.45;100853.78;4935799;29;20043;-59
2022/07/06 04:21:29;;;;;;;1.65;0.50;;;;;;;27.06;41.93;100859.50;4933800;29;20423;-60
2022/07/06 04:24:14;;;;;;;0.90;0.70;;;;;;;27.13;42.19;100856.59;4941394;28;20050;-59
2022/07/06 04:26:59;;;;;;;3.05;0.52;;;;;;;27.10;41.42;100849.06;4941779;29;20056;-59
2022/07/06 04:29:44;;;;;;;1.38;0.55;;;;;;;27.23;42.04;100838.06;4935528;29;20055;-59
2022/07/06 04:32:29;;;;;;;1.48;0.50;;;;;;;27.34;41.05;100833.06;4935906;29;20055;-59
2022/07/06 04:35:14;;;;;;;1.52;0.68;;;;;;;27.32;41.73;100851.50;4935358;29;20066;-61
2022/07/06 04:38:01;;;;;;;1.92;0.60;;;;;;;27.24;41.43;100879.53;4935476;29;20051;-59
2022/07/06 04:40:48;;;;;;;3.72;0.68;;;;;;;27.42;41.93;100886.81;4940157;29;20078;-61
2022/07/06 04:43:35;;;;;;;7.30;1.00;;;;;;;27.42;41.87;100884.03;4937247;29;20181;-60
2022/07/06 04:46:20;;;;;;;3.92;0.73;;;;;;;27.67;41.38;100881.59;4939881;29;20411;-59
2022/07/06 04:49:08;;;;;;;5.07;0.60;;;;;;;27.77;41.70;100877.00;4937478;28;20055;-60
2022/07/06 04:51:53;;;;;;;1.17;0.60;;;;;;;27.82;41.53;100887.69;4937988;29;20054;-61
2022/07/06 04:54:38;;;;;;;2.55;0.65;;;;;;;27.71;41.19;100892.69;4934098;29;20047;-61
2022/07/06 04:57:25;;;;;;;3.78;0.80;;;;;;;27.74;41.57;100895.41;4921518;29;20415;-60
2022/07/06 05:00:13;;;;;;;2.70;0.70;;;;;;;27.67;41.73;100914.34;4934005;29;20098;-60
2022/07/06 05:02:59;;;;;;;1.98;0.50;;;;;;;27.56;41.64;100934.09;4930123;29;20411;-61
2022/07/06 05:05:45;;;;;;;2.25;0.60;;;;;;;27.50;41.27;100941.38;4942682;28;20050;-59
2022/07/06 05:08:31;;;;;;;7.72;1.75;;;;;;;27.46;42.48;100944.22;4932593;29;20051;-59
2022/07/06 05:11:16;;;;;;;3.28;0.80;;;;;;;27.43;42.16;100964.59;4934459;29;20059;-59
2022/07/06 05:14:01;;;;;;;7.85;0.90;;;;;;;27.45;42.53;100966.97;4934805;29;20502;-61
2022/07/06 05:16:46;;;;;;;1.30;0.70;;;;;;;27.46;42.25;100982.53;4928884;29;20411;-58
2022/07/06 05:19:32;;;;;;;93.30;18.33;;;;;;;27.39;41.76;100993.81;4931657;29;20411;-66
2022/07/06 05:22:18;;;;;;;29.02;6.22;;;;;;;27.24;42.45;101010.00;4934579;29;20047;-63
2022/07/06 05:25:05;;;;;;;17.30;3.28;;;;;;;26.95;43.59;101006.84;4935356;29;20043;-61
2022/07/06 05:27:50;;;;;;;23.40;3.03;;;;;;;26.68;45.44;101014.34;4935531;29;20052;-60
2022/07/06 05:30:35;;;;;;;18.63;2.40;;;;;;;25.81;52.31;101026.00;4943087;29;20415;-61
2022/07/06 07:14:30;;;;;;;3.85;1.25;;;;;;;28.30;51.49;101019.41;4933618;29;20416;-79
2022/07/06 07:16:57;;;;;;;5.07;0.80;;;;;;;28.36;49.55;101014.88;4950830;23;20044;-76
2022/07/06 07:19:42;;;;;;;3.83;0.90;;;;;;;28.34;49.01;101022.16;4934048;29;20046;-76
2022/07/06 07:22:27;;;;;;;2.78;0.77;;;;;;;28.15;46.70;101018.09;4924141;29;20066;-74
2022/07/06 07:25:11;;;;;;;1.52;0.85;;;;;;;27.88;48.53;101020.19;4929044;29;20054;-75
2022/07/06 07:27:56;;;;;;;2.55;0.70;;;;;;;28.29;46.46;101025.44;4947019;29;20050;-75
2022/07/06 07:30:41;;;;;;;11.20;0.95;;;;;;;28.60;45.85;101026.78;4942479;29;20042;-75
2022/07/06 07:33:26;;;;;;;6.05;1.27;;;;;;;28.98;43.57;101026.44;4945787;29;20047;-75
2022/07/06 07:36:11;;;;;;;1.80;0.80;;;;;;;29.29;42.26;101027.72;4943274;29;20046;-75
2022/07/06 07:38:56;;;;;;;4.18;0.90;;;;;;;29.78;41.93;101031.34;4942278;29;20054;-76
2022/07/06 07:41:41;;;;;;;2.60;0.98;;;;;;;29.94;41.00;101038.97;4945801;29;20530;-75
2022/07/06 07:44:27;;;;;;;4.90;0.57;;;;;;;30.49;39.30;101029.47;4950902;29;20059;-77
2022/07/06 07:47:11;;;;;;;3.85;0.90;;;;;;;30.63;39.20;101025.50;4943234;29;20051;-76
2022/07/06 07:49:56;;;;;;;1.23;0.85;;;;;;;31.00;38.10;101033.97;4942478;29;20046;-77
2022/07/06 07:52:41;;;;;;;1.38;0.70;;;;;;;31.57;35.45;101023.00;4947183;29;20047;-76
2022/07/06 07:55:25;;;;;;;2.70;0.60;;;;;;;32.52;32.67;101030.13;4934947;29;20054;-78
2022/07/06 07:58:10;;;;;;;5.82;0.73;;;;;;;31.26;34.65;101040.44;4942577;29;20063;-77
2022/07/06 08:00:55;;;;;;;1.88;0.52;;;;;;;30.41;36.78;101030.91;4952294;28;20054;-76
2022/07/06 08:03:39;;;;;;;23.50;4.40;;;;;;;29.83;38.82;101032.81;4950390;29;20070;-77
2022/07/06 08:06:25;;;;;;;2.25;0.63;;;;;;;29.56;38.67;101031.06;4952935;28;20050;-76
2022/07/06 08:09:09;;;;;;;3.03;0.90;;;;;;;29.36;40.09;101041.56;4947237;29;20050;-75
2022/07/06 08:11:55;;;;;;;4.18;1.13;;;;;;;29.17;40.65;101034.00;4952237;29;20085;-75
2022/07/06 08:14:40;;;;;;;4.13;0.80;;;;;;;29.03;41.54;101032.31;4945806;29;20046;-76
2022/07/06 08:17:25;;;;;;;1.00;0.68;;;;;;;29.10;41.37;101020.97;4952555;29;20046;-75
2022/07/06 08:20:10;;;;;;;2.10;0.93;;;;;;;29.16;41.41;101019.19;4951827;28;20416;-75
2022/07/06 08:22:56;;;;;;;1.85;0.65;;;;;;;29.02;41.32;101019.53;4964610;28;20054;-76
2022/07/06 08:25:40;;;;;;;2.75;0.70;;;;;;;28.98;41.61;101016.03;4953042;28;20515;-75
2022/07/06 08:28:25;;;;;;;4.50;1.00;;;;;;;28.99;42.22;101014.00;4953217;28;20547;-76
2022/07/06 08:31:11;;;;;;;4.15;0.80;;;;;;;28.95;42.37;101025.31;4952293;29;20049;-75
2022/07/06 08:33:56;;;;;;;5.03;0.60;;;;;;;29.10;39.21;101022.97;4949900;29;20404;-76
2022/07/06 08:36:41;;;;;;;2.25;0.70;;;;;;;29.00;41.80;101033.19;4940687;29;20534;-76
2022/07/06 08:39:26;;;;;;;2.00;0.90;;;;;;;29.02;39.81;101033.53;4952555;28;20054;-77
2022/07/06 08:42:12;;;;;;;2.22;0.88;;;;;;;29.21;38.59;101031.91;4952462;29;20116;-76
2022/07/06 08:45:01;;;;;;;1.95;0.63;;;;;;;29.26;39.55;101031.38;4941546;29;20047;-76
2022/07/06 08:47:49;;;;;;;1.38;0.80;;;;;;;29.08;40.23;101025.41;4953685;29;20407;-76
2022/07/06 08:50:34;;;;;;;3.85;0.57;;;;;;;29.03;39.55;101029.50;4943293;29;20054;-76
2022/07/06 08:53:20;;;;;;;1.63;0.47;;;;;;;29.03;39.16;101028.72;4936357;29;20051;-76
2022/07/06 08:56:05;;;;;;;1.60;0.68;;;;;;;29.06;37.86;101027.84;4941382;29;20519;-77
2022/07/06 08:58:50;;;;;;;1.58;0.70;;;;;;;29.16;39.04;101024.81;4955253;28;20042;-76
2022/07/06 09:01:35;;;;;;;1.13;0.47;;;;;;;29.19;39.44;101020.34;4947415;29;20046;-75
2022/07/06 09:04:22;;;;;;;1.20;0.55;;;;;;;29.25;39.69;101024.22;4949746;28;20409;-77
2022/07/06 09:07:07;;;;;;;5.18;0.52;;;;;;;29.27;38.74;101016.16;4951936;28;20066;-76
2022/07/06 09:09:52;;;;;;;6.53;0.77;;;;;;;29.27;39.17;101016.94;4950345;28;20047;-76
2022/07/06 09:12:37;;;;;;;1.80;0.55;;;;;;;29.33;38.93;101012.44;4942290;28;20057;-76
2022/07/06 09:15:28;;;;;;;2.88;0.82;;;;;;;29.43;37.97;101010.59;4937508;29;20385;-77
2022/07/06 09:18:14;;;;;;;0.57;0.32;;;;;;;29.48;37.96;101012.09;4931919;28;20440;-77
2022/07/06 09:20:58;;;;;;;0.90;0.60;;;;;;;29.49;38.39;101008.06;4946801;28;20526;-77
2022/07/06 09:23:43;;;;;;;0.55;0.40;;;;;;;29.50;37.13;101006.84;4934246;29;20050;-76
2022/07/06 09:26:28;;;;;;;0.93;0.45;;;;;;;29.52;36.69;101004.38;4940341;29;20051;-77
2022/07/06 09:29:13;;;;;;;4.05;0.70;;;;;;;29.60;37.94;101014.19;4940911;29;20062;-76
2022/07/06 09:32:05;;;;;;;1.48;0.70;;;;;;;29.69;37.85;101005.94;4943871;28;20050;-77
2022/07/06 09:34:50;;;;;;;0.85;0.60;;;;;;;29.70;37.62;101007.53;4934250;29;20252;-75
2022/07/06 09:37:35;;;;;;;4.05;0.70;;;;;;;29.75;36.77;101004.19;4939218;28;20058;-75
2022/07/06 09:40:20;;;;;;;1.35;0.60;;;;;;;29.82;36.89;100994.81;4936530;29;20054;-79
2022/07/06 09:43:12;;;;;;;1.20;0.50;;;;;;;29.89;36.54;100998.25;4937443;29;20051;-79
2022/07/06 09:45:57;;;;;;;0.85;0.40;;;;;;;29.94;35.85;100999.72;4935981;29;20046;-79
2022/07/06 09:48:42;;;;;;;2.58;0.50;;;;;;;29.97;35.88;100999.59;4935121;29;20042;-79
2022/07/06 09:51:30;;;;;;;2.75;0.68;;;;;;;30.03;35.67;100994.25;4935340;29;20074;-80
2022/07/06 09:54:16;;;;;;;2.80;0.55;;;;;;;30.05;35.66;100986.19;4933240;29;20125;-81
2022/07/06 09:57:01;;;;;;;1.75;0.55;;;;;;;30.15;35.41;100985.13;4932492;29;20065;-80
2022/07/06 09:59:50;;;;;;;1.20;0.47;;;;;;;30.18;35.17;100993.44;4931787;29;20055;-79
2022/07/06 10:02:36;;;;;;;3.88;0.40;;;;;;;30.21;35.16;100986.16;4938348;29;20523;-79
2022/07/06 10:05:29;;;;;;;1.10;0.40;;;;;;;30.27;35.47;100984.38;4941582;28;20046;-78
2022/07/06 10:08:15;;;;;;;2.42;0.30;;;;;;;30.31;35.41;100979.44;4935419;29;20059;-79
2022/07/06 10:11:01;;;;;;;2.90;0.60;;;;;;;30.34;35.54;100978.56;4934330;29;20062;-78
2022/07/06 10:13:48;;;;;;;0.47;0.32;;;;;;;30.40;34.52;100981.59;4935467;29;20059;-78
2022/07/06 10:16:38;;;;;;;0.98;0.30;;;;;;;30.46;34.56;100985.44;4934049;29;20051;-77
2022/07/06 10:19:23;;;;;;;1.95;0.40;;;;;;;30.49;34.84;100979.75;4935016;29;20050;-79
2022/07/06 10:22:08;;;;;;;0.50;0.30;;;;;;;30.54;35.04;100981.22;4935938;29;20047;-78
2022/07/06 10:24:55;;;;;;;1.67;0.57;;;;;;;30.57;34.57;100971.91;4942014;28;20144;-77
2022/07/06 10:27:42;;;;;;;4.35;0.45;;;;;;;30.56;34.79;100979.53;4941329;28;20050;-78
2022/07/06 10:30:29;;;;;;;1.88;0.60;;;;;;;30.61;34.90;100974.59;4918288;29;20523;-78
2022/07/06 10:33:15;;;;;;;0.50;0.30;;;;;;;30.66;35.07;100968.44;4942172;28;20051;-78
2022/07/06 10:36:00;;;;;;;5.65;0.60;;;;;;;30.71;34.39;100967.88;4934837;29;20082;-80
2022/07/06 10:38:49;;;;;;;2.85;0.75;;;;;;;30.77;33.81;100966.09;4937832;29;20538;-78
2022/07/06 10:41:37;;;;;;;0.80;0.60;;;;;;;30.80;33.58;100970.81;4934943;29;20070;-80
2022/07/06 10:44:26;;;;;;;1.77;0.50;;;;;;;30.85;33.07;100970.25;4940779;29;20046;-80
2022/07/06 10:47:11;;;;;;;1.50;0.43;;;;;;;30.87;32.87;100967.78;4942138;29;20054;-80
2022/07/06 10:50:00;;;;;;;0.77;0.30;;;;;;;30.95;32.14;100971.94;4926830;29;20516;-80
2022/07/06 10:52:58;;;;;;;1.00;0.50;;;;;;;30.98;32.78;100971.06;4929180;29;20409;-79
2022/07/06 10:55:50;;;;;;;2.55;0.82;;;;;;;30.99;32.73;100967.78;4934353;29;20046;-78
2022/07/06 10:58:51;;;;;;;2.95;0.28;;;;;;;31.04;33.50;100971.28;4931660;29;20412;-81
2022/07/06 11:01:37;;;;;;;0.65;0.40;;;;;;;31.09;33.65;100973.56;4938440;29;20199;-81
2022/07/06 11:04:31;;;;;;;1.50;0.43;;;;;;;31.19;34.17;100961.94;4933658;29;20051;-81
2022/07/06 11:07:19;;;;;;;3.08;0.60;;;;;;;31.20;33.86;100965.56;4946874;29;20044;-81
2022/07/06 11:10:04;;;;;;;0.57;0.40;;;;;;;31.20;33.77;100965.56;4936790;29;20059;-81
2022/07/06 11:12:58;;;;;;;1.83;0.55;;;;;;;31.33;33.73;100972.75;4938952;29;20058;-81
2022/07/06 11:15:47;;;;;;;0.68;0.30;;;;;;;31.39;33.33;100967.34;4939781;29;20043;-81
2022/07/06 11:18:40;;;;;;;0.55;0.43;;;;;;;31.41;33.87;100964.84;4935329;29;20047;-81
2022/07/06 11:21:51;;;;;;;2.97;0.60;;;;;;;31.48;33.81;100961.03;4932011;29;20054;-80
2022/07/06 11:24:39;;;;;;;8.15;1.92;;;;;;;31.47;32.94;100962.25;4936890;29;20055;-82
2022/07/06 11:27:24;;;;;;;26.08;5.65;;;;;;;31.47;32.94;100949.00;4941329;29;20047;-81
2022/07/06 11:30:12;;;;;;;14.75;3.08;;;;;;;31.44;32.95;100947.84;4939516;29;20044;-81
2022/07/06 11:32:57;;;;;;;13.27;3.35;;;;;;;31.50;32.80;100950.88;4936778;29;20054;-81
2022/07/06 11:35:42;;;;;;;3.40;0.82;;;;;;;31.50;32.56;100952.91;4940897;29;20055;-81
2022/07/06 11:38:27;;;;;;;4.00;1.40;;;;;;;31.54;33.07;100956.41;4940031;29;20047;-81
2022/07/06 11:41:14;;;;;;;5.57;1.75;;;;;;;31.57;33.00;100944.28;4937280;29;20050;-82
2022/07/06 11:43:59;;;;;;;4.43;0.82;;;;;;;31.58;33.47;100937.41;4937077;29;20062;-83
2022/07/06 11:46:44;;;;;;;2.20;0.50;;;;;;;31.61;33.95;100934.47;4939629;29;20046;-83
2022/07/06 11:49:29;;;;;;;23.17;6.40;;;;;;;31.64;34.07;100929.97;4948318;28;20055;-80
2022/07/06 11:52:14;;;;;;;6.95;2.47;;;;;;;31.65;33.64;100928.72;4948748;28;20067;-83
2022/07/06 11:55:00;;;;;;;6.18;2.67;;;;;;;31.63;33.76;100919.97;4958299;29;20046;-82
2022/07/06 11:57:45;;;;;;;8.43;3.08;;;;;;;31.64;34.18;100915.91;4940637;29;20070;-81
2022/07/06 12:00:30;;;;;;;3.95;0.93;;;;;;;31.64;33.28;100910.28;4939320;29;20059;-80
2022/07/06 12:03:15;;;;;;;4.30;1.10;;;;;;;31.67;32.60;100906.56;4936532;29;20059;-82
2022/07/06 12:06:02;;;;;;;1.88;0.70;;;;;;;31.70;32.21;100908.44;4939129;29;20133;-81
2022/07/06 12:08:49;;;;;;;6.45;2.25;;;;;;;31.71;33.21;100898.78;4945041;29;20054;-81
2022/07/06 12:11:35;;;;;;;2.85;0.63;;;;;;;31.67;32.89;100895.31;4949501;28;20408;-82
2022/07/06 12:14:21;;;;;;;0.95;0.40;;;;;;;31.72;33.59;100895.50;4948599;29;20047;-83
2022/07/06 12:17:15;;;;;;;0.85;0.50;;;;;;;31.76;33.98;100890.53;4971570;28;20058;-82
2022/07/06 12:20:00;;;;;;;0.98;0.47;;;;;;;31.80;33.84;100893.22;4956997;29;20074;-83
2022/07/06 12:22:45;;;;;;;4.07;0.57;;;;;;;31.82;33.07;100885.13;4948104;29;20050;-82
2022/07/06 12:25:34;;;;;;;1.30;0.50;;;;;;;31.83;32.71;100872.63;4957682;28;20070;-82
2022/07/06 12:28:23;;;;;;;2.58;0.77;;;;;;;31.86;32.87;100863.25;4952273;29;20058;-82
2022/07/06 12:31:09;;;;;;;3.00;0.70;;;;;;;31.86;33.41;100857.63;4955800;28;20050;-81
2022/07/06 12:33:57;;;;;;;0.75;0.50;;;;;;;31.90;33.09;100847.03;4946767;28;20413;-81
2022/07/06 12:36:44;;;;;;;1.40;0.50;;;;;;;31.99;32.06;100857.56;4957659;28;20042;-82
2022/07/06 12:39:29;;;;;;;1.33;0.47;;;;;;;31.98;32.25;100856.00;4958950;28;20419;-83
2022/07/06 12:42:15;;;;;;;0.80;0.40;;;;;;;31.99;32.07;100846.31;4956086;29;20050;-83
2022/07/06 12:45:00;;;;;;;1.73;0.60;;;;;;;32.01;32.28;100847.41;4967872;28;20054;-82
2022/07/06 12:48:01;;;;;;;2.65;0.63;;;;;;;32.11;32.44;100845.47;4958804;28;20408;-82
2022/07/06 12:50:46;;;;;;;0.63;0.40;;;;;;;32.09;32.60;100845.91;4949536;29;20054;-81
2022/07/06 12:53:31;;;;;;;25.75;2.28;;;;;;;32.08;32.34;100837.94;4957066;28;20048;-81
2022/07/06 12:56:17;;;;;;;1.08;0.45;;;;;;;32.11;32.62;100845.47;4956613;28;20050;-82
2022/07/06 12:59:02;;;;;;;3.33;0.50;;;;;;;32.16;32.58;100842.06;4948811;28;20047;-82
2022/07/06 13:01:48;;;;;;;2.30;0.30;;;;;;;32.13;32.49;100840.97;4930187;29;20055;-81
2022/07/06 13:04:32;;;;;;;1.52;0.20;;;;;;;32.11;32.70;100843.44;4933549;29;20047;-80
2022/07/06 13:07:21;;;;;;;1.63;0.35;;;;;;;32.14;32.42;100834.09;4931960;29;20453;-82
2022/07/06 13:10:08;;;;;;;0.90;0.40;;;;;;;32.20;32.61;100842.72;4922948;29;20071;-83
2022/07/06 13:12:53;;;;;;;7.07;0.50;;;;;;;32.18;32.48;100839.56;4950547;28;20074;-82
2022/07/06 13:15:42;;;;;;;1.63;0.60;;;;;;;32.22;31.87;100834.59;4971119;23;20067;-78
2022/07/06 13:18:27;;;;;;;1.45;0.50;;;;;;;32.26;32.05;100843.66;4965831;28;20058;-78
2022/07/06 13:21:12;;;;;;;1.70;0.40;;;;;;;32.28;31.78;100834.78;4988856;28;20049;-78
2022/07/06 13:23:57;;;;;;;0.65;0.45;;;;;;;32.30;31.53;100832.28;4987429;28;20054;-78
2022/07/06 13:26:42;;;;;;;1.15;0.40;;;;;;;32.30;31.31;100830.25;4963329;28;20050;-78
2022/07/06 13:29:26;;;;;;;2.10;0.30;;;;;;;32.32;30.96;100829.78;4945704;29;20059;-78
2022/07/06 13:32:11;;;;;;;0.80;0.40;;;;;;;32.35;31.14;100834.50;4964999;28;20058;-78
2022/07/06 13:34:56;;;;;;;0.98;0.60;;;;;;;32.39;30.88;100823.88;4976389;28;20054;-78
2022/07/06 13:37:41;;;;;;;1.17;0.40;;;;;;;32.40;31.19;100819.81;4954104;29;20042;-78
2022/07/06 13:40:26;;;;;;;1.92;0.60;;;;;;;32.36;31.65;100813.53;4946820;29;20059;-78
2022/07/06 13:43:11;;;;;;;1.05;0.60;;;;;;;32.37;31.11;100812.28;4961523;28;20059;-78
2022/07/06 13:45:56;;;;;;;1.15;0.60;;;;;;;32.36;31.47;100819.16;4946711;29;20051;-78
2022/07/06 13:48:40;;;;;;;2.05;0.50;;;;;;;32.36;30.92;100819.16;4950638;29;20409;-78
2022/07/06 13:51:26;;;;;;;4.40;0.65;;;;;;;32.38;31.42;100811.03;4948927;29;20058;-78
2022/07/06 13:54:11;;;;;;;2.83;0.70;;;;;;;32.38;30.80;100808.22;4956278;29;20058;-78
2022/07/06 13:56:56;;;;;;;3.30;0.52;;;;;;;32.39;31.36;100802.16;4971376;28;20412;-78
2022/07/06 13:59:42;;;;;;;1.25;0.63;;;;;;;32.36;31.59;100805.88;4965020;28;20050;-78
2022/07/06 14:02:27;;;;;;;4.25;0.43;;;;;;;32.36;31.89;100799.44;4958042;28;20054;-78
2022/07/06 14:05:11;;;;;;;2.60;0.55;;;;;;;32.34;31.98;100794.31;4971098;28;20439;-78
2022/07/06 14:07:57;;;;;;;1.25;0.70;;;;;;;32.33;31.98;100791.94;4970161;28;20523;-79
2022/07/06 14:10:42;;;;;;;1.60;0.50;;;;;;;32.31;31.94;100783.16;4965589;29;20058;-78
2022/07/06 14:13:27;;;;;;;6.47;0.65;;;;;;;32.28;32.23;100782.06;4970014;28;20046;-79
2022/07/06 14:16:12;;;;;;;1.25;0.60;;;;;;;32.29;32.43;100774.41;4960319;28;20046;-79
2022/07/06 14:18:57;;;;;;;3.38;0.50;;;;;;;32.29;31.69;100771.59;4966691;28;20070;-78
2022/07/06 14:21:42;;;;;;;2.03;0.85;;;;;;;32.29;32.30;100780.06;4947791;29;20283;-78
2022/07/06 14:24:27;;;;;;;0.68;0.52;;;;;;;32.28;31.98;100770.03;4946113;29;20062;-78
2022/07/06 14:27:12;;;;;;;2.60;0.73;;;;;;;32.25;31.79;100764.06;4929350;29;20452;-80
2022/07/06 14:29:56;;;;;;;1.10;0.70;;;;;;;32.24;31.76;100758.94;4933888;29;20042;-77
2022/07/06 14:32:43;;;;;;;0.95;0.40;;;;;;;32.23;31.63;100766.59;4935833;29;20038;-77